Time;durP1;ratioP1;P1;durP2;ratioP2;P2;SDS_P1;SDS_P2;PMS_P1;PMS_P2;Temp;Humidity;BMP_temperature;BMP_pressure;BME280_temperature;BME280_humidity;BME280_pressure;Samples;Min_cycle;Max_cycle;Signal;HPM_P1;HPM_P2
2022/05/31 00:00:43;;;;;;;1.00;0.97;;;13.70;99.90;;;;;;6300730;28;20505;-60
2022/05/31 00:03:47;;;;;;;1.63;1.10;;;13.70;99.90;;;;;;6299858;28;20481;-59
2022/05/31 00:06:50;;;;;;;1.23;1.13;;;13.60;99.90;;;;;;6300346;28;20474;-61
2022/05/31 00:09:53;;;;;;;1.47;1.20;;;13.60;99.90;;;;;;6300846;28;20469;-59
2022/05/31 00:12:58;;;;;;;2.13;1.20;;;13.60;99.90;;;;;;6300296;28;20488;-60
2022/05/31 00:16:01;;;;;;;0.93;0.83;;;13.50;99.90;;;;;;6300649;28;20464;-61
2022/05/31 00:19:04;;;;;;;1.70;0.90;;;13.50;99.90;;;;;;6300503;28;20483;-60
2022/05/31 00:22:10;;;;;;;1.03;1.03;;;13.50;99.90;;;;;;6300439;28;20469;-60
2022/05/31 00:25:15;;;;;;;1.23;0.90;;;13.40;99.90;;;;;;6300052;28;20895;-60
2022/05/31 00:28:19;;;;;;;1.97;1.40;;;13.30;99.90;;;;;;6300415;28;20461;-60
2022/05/31 00:31:23;;;;;;;1.20;1.10;;;13.30;99.90;;;;;;6300437;28;20541;-61
2022/05/31 00:34:27;;;;;;;1.40;1.30;;;13.20;99.90;;;;;;6312714;28;20472;-60
2022/05/31 00:37:33;;;;;;;1.10;1.00;;;13.20;99.90;;;;;;6325651;28;20473;-60
2022/05/31 00:40:37;;;;;;;1.00;0.90;;;13.10;99.90;;;;;;6314935;28;20473;-62
2022/05/31 00:43:41;;;;;;;1.27;1.17;;;13.00;99.90;;;;;;6323517;28;20483;-63
2022/05/31 00:46:49;;;;;;;1.33;1.20;;;12.90;99.90;;;;;;6323363;28;20522;-62
2022/05/31 00:49:57;;;;;;;1.80;1.00;;;12.90;99.90;;;;;;6323719;28;20487;-63
2022/05/31 00:53:08;;;;;;;2.03;1.00;;;12.90;99.90;;;;;;6273737;28;20470;-61
2022/05/31 00:56:17;;;;;;;1.20;1.10;;;12.90;99.90;;;;;;6274881;28;20482;-62
2022/05/31 00:59:33;;;;;;;1.30;1.20;;;12.90;99.90;;;;;;6275036;28;20467;-62
2022/05/31 01:02:38;;;;;;;1.50;1.10;;;12.90;99.90;;;;;;6273815;28;20956;-62
2022/05/31 01:05:41;;;;;;;1.33;1.10;;;12.90;99.90;;;;;;6274292;28;20493;-62
2022/05/31 01:08:46;;;;;;;2.50;1.17;;;12.80;99.90;;;;;;6274941;28;20481;-63
2022/05/31 01:11:49;;;;;;;1.10;1.00;;;12.60;99.90;;;;;;6274396;28;20976;-64
2022/05/31 01:14:54;;;;;;;1.30;1.20;;;12.60;99.90;;;;;;6285723;28;20473;-60
2022/05/31 01:17:57;;;;;;;1.50;1.30;;;12.60;99.90;;;;;;6297831;28;20567;-60
2022/05/31 01:21:02;;;;;;;1.70;1.50;;;12.70;99.90;;;;;;6297672;28;20961;-60
2022/05/31 01:24:12;;;;;;;2.07;1.20;;;12.70;99.90;;;;;;6297494;28;20481;-60
2022/05/31 01:27:27;;;;;;;1.43;1.13;;;12.70;99.90;;;;;;6296121;28;20480;-60
2022/05/31 01:30:32;;;;;;;2.20;1.37;;;12.60;99.90;;;;;;6295583;28;20474;-60
2022/05/31 01:33:42;;;;;;;2.93;1.30;;;12.60;99.90;;;;;;6298420;28;20487;-61
2022/05/31 01:36:50;;;;;;;1.90;1.47;;;12.50;99.90;;;;;;6298432;28;20470;-60
2022/05/31 01:39:58;;;;;;;1.20;1.10;;;12.40;99.90;;;;;;6299752;28;20949;-60
2022/05/31 01:43:01;;;;;;;1.93;1.13;;;12.40;99.90;;;;;;6294307;28;20486;-61
2022/05/31 01:46:09;;;;;;;1.37;1.27;;;12.40;99.90;;;;;;6299005;28;20570;-60
2022/05/31 01:49:14;;;;;;;1.40;1.20;;;12.40;99.90;;;;;;6299242;28;20424;-61
2022/05/31 01:52:20;;;;;;;1.90;1.80;;;12.50;99.90;;;;;;6299466;28;20799;-60
2022/05/31 01:55:23;;;;;;;1.40;1.27;;;12.30;99.90;;;;;;6299322;28;20772;-60
2022/05/31 01:58:30;;;;;;;2.00;1.40;;;12.30;99.90;;;;;;6299253;28;20476;-61
2022/05/31 02:01:38;;;;;;;6.00;1.70;;;12.30;99.90;;;;;;6299481;28;20476;-60
2022/05/31 02:04:41;;;;;;;1.57;1.30;;;12.20;99.90;;;;;;6298878;28;20478;-60
2022/05/31 02:07:53;;;;;;;1.43;1.33;;;12.20;99.90;;;;;;6299064;28;20492;-60
2022/05/31 02:10:57;;;;;;;1.17;1.07;;;12.10;99.90;;;;;;6298359;28;20473;-60
2022/05/31 02:14:00;;;;;;;2.10;1.30;;;12.10;99.90;;;;;;6298492;28;20488;-60
2022/05/31 02:17:04;;;;;;;1.70;1.13;;;12.10;99.90;;;;;;6298865;28;20566;-61
2022/05/31 02:20:08;;;;;;;1.20;1.07;;;12.10;99.90;;;;;;6298923;28;20570;-61
2022/05/31 02:23:12;;;;;;;7.43;1.53;;;12.10;99.90;;;;;;6298614;28;20470;-61
2022/05/31 02:26:15;;;;;;;1.40;1.13;;;12.00;99.90;;;;;;6299010;28;20461;-60
2022/05/31 02:29:22;;;;;;;1.70;1.27;;;12.00;99.90;;;;;;6303726;28;20779;-60
2022/05/31 02:32:25;;;;;;;1.20;1.00;;;11.90;99.90;;;;;;6303808;28;20466;-61
2022/05/31 02:35:29;;;;;;;1.20;1.10;;;11.90;99.90;;;;;;6303116;27;20473;-60
2022/05/31 02:38:34;;;;;;;1.83;1.73;;;11.80;99.90;;;;;;6303270;28;20479;-61
2022/05/31 02:41:37;;;;;;;1.93;1.03;;;11.70;99.90;;;;;;6303346;28;20468;-61
2022/05/31 02:44:40;;;;;;;1.47;1.37;;;11.70;99.90;;;;;;6303262;28;20863;-61
2022/05/31 02:47:44;;;;;;;1.23;1.13;;;11.60;99.90;;;;;;6303524;28;20469;-60
2022/05/31 02:50:47;;;;;;;1.50;1.13;;;11.60;99.90;;;;;;6303380;28;20485;-60
2022/05/31 02:53:51;;;;;;;2.10;1.17;;;11.60;99.90;;;;;;6302938;28;20469;-61
2022/05/31 02:56:54;;;;;;;1.40;1.30;;;11.70;99.90;;;;;;6302880;28;21085;-60
2022/05/31 02:59:58;;;;;;;2.60;1.10;;;11.60;99.90;;;;;;6302707;28;20465;-60
2022/05/31 03:03:01;;;;;;;1.37;1.27;;;11.70;99.90;;;;;;6302122;28;20465;-61
2022/05/31 03:06:04;;;;;;;1.30;1.20;;;11.70;99.90;;;;;;6301903;28;20484;-61
2022/05/31 03:09:09;;;;;;;2.43;1.40;;;11.70;99.90;;;;;;6302517;28;20796;-60
2022/05/31 03:12:16;;;;;;;2.00;1.10;;;11.70;99.90;;;;;;6302788;28;20508;-61
2022/05/31 03:15:21;;;;;;;1.63;1.40;;;11.60;99.90;;;;;;6302523;28;20802;-60
2022/05/31 03:18:28;;;;;;;4.27;1.60;;;11.60;99.90;;;;;;6302082;28;20817;-60
2022/05/31 03:21:36;;;;;;;1.43;1.07;;;11.70;99.90;;;;;;6301931;28;20480;-61
2022/05/31 03:24:44;;;;;;;1.50;1.40;;;11.70;99.90;;;;;;6302352;28;20473;-61
2022/05/31 03:27:48;;;;;;;1.50;1.40;;;11.60;99.90;;;;;;6301466;28;20965;-61
2022/05/31 03:30:51;;;;;;;3.67;1.20;;;11.60;99.90;;;;;;6301984;28;20481;-61
2022/05/31 03:34:00;;;;;;;2.70;1.40;;;11.70;99.90;;;;;;6301445;28;20894;-61
2022/05/31 03:37:04;;;;;;;2.63;0.90;;;11.70;99.90;;;;;;6301406;28;20490;-61
2022/05/31 03:40:10;;;;;;;4.77;1.20;;;11.70;99.90;;;;;;6301337;28;20441;-61
2022/05/31 03:43:14;;;;;;;1.40;1.27;;;11.60;99.90;;;;;;6301288;28;20460;-61
2022/05/31 03:46:17;;;;;;;1.60;1.50;;;11.60;99.90;;;;;;6301157;28;20489;-60
2022/05/31 03:49:21;;;;;;;1.40;1.30;;;11.60;99.90;;;;;;6301184;28;20476;-60
2022/05/31 03:52:24;;;;;;;3.80;2.53;;;11.60;99.90;;;;;;6292305;28;20465;-61
2022/05/31 03:55:28;;;;;;;1.77;1.33;;;11.60;99.90;;;;;;6301304;28;20488;-60
2022/05/31 03:58:32;;;;;;;2.17;1.33;;;11.60;99.90;;;;;;6301270;28;20957;-60
2022/05/31 04:01:35;;;;;;;1.57;1.47;;;11.70;99.90;;;;;;6301575;28;20473;-61
2022/05/31 04:04:39;;;;;;;1.27;1.10;;;11.70;99.90;;;;;;6301597;28;20480;-61
2022/05/31 04:07:42;;;;;;;2.53;1.17;;;11.80;99.90;;;;;;6301405;28;20480;-61
2022/05/31 04:10:47;;;;;;;1.60;1.50;;;11.80;99.90;;;;;;6301473;28;20476;-61
2022/05/31 04:13:50;;;;;;;1.87;1.77;;;11.90;99.90;;;;;;6301146;28;20485;-61
2022/05/31 04:16:53;;;;;;;1.33;1.23;;;11.90;99.90;;;;;;6301207;28;20465;-61
2022/05/31 04:19:57;;;;;;;2.80;1.50;;;12.00;99.90;;;;;;6300549;28;20480;-61
2022/05/31 04:26:21;;;;;;;2.37;1.73;;;12.20;99.90;;;;;;6300262;28;20485;-60
2022/05/31 04:29:25;;;;;;;1.70;1.60;;;12.30;99.90;;;;;;6300799;28;20483;-60
2022/05/31 04:32:28;;;;;;;2.43;1.70;;;12.40;99.90;;;;;;6300452;28;20484;-61
2022/05/31 04:35:31;;;;;;;2.77;1.93;;;12.50;99.90;;;;;;6300627;28;20473;-61
2022/05/31 04:38:35;;;;;;;3.10;2.80;;;12.70;99.90;;;;;;6300792;28;20477;-61
2022/05/31 04:41:40;;;;;;;2.57;2.37;;;12.80;99.90;;;;;;6300685;28;20497;-61
2022/05/31 04:44:43;;;;;;;2.23;2.13;;;13.00;99.90;;;;;;6300663;28;20485;-61
2022/05/31 04:47:46;;;;;;;3.53;3.00;;;13.10;99.90;;;;;;6300351;28;20484;-61
2022/05/31 04:50:49;;;;;;;4.47;2.43;;;13.20;99.90;;;;;;6299939;28;20971;-60
2022/05/31 04:53:53;;;;;;;4.80;3.23;;;13.40;99.90;;;;;;6300297;28;20472;-61
2022/05/31 04:56:59;;;;;;;5.17;2.77;;;13.50;99.90;;;;;;6295487;28;20457;-61
2022/05/31 05:00:06;;;;;;;4.10;2.30;;;13.70;99.90;;;;;;6300169;28;20484;-61
2022/05/31 05:03:09;;;;;;;3.57;2.90;;;13.80;99.90;;;;;;6300470;28;20478;-65
2022/05/31 05:06:15;;;;;;;3.10;2.40;;;13.90;99.90;;;;;;6300420;28;20481;-65
2022/05/31 05:09:18;;;;;;;2.37;1.93;;;14.00;99.90;;;;;;6300660;28;20469;-65
2022/05/31 05:12:28;;;;;;;3.20;2.27;;;14.20;99.90;;;;;;6300252;28;20823;-64
2022/05/31 05:15:31;;;;;;;2.70;2.50;;;14.40;99.90;;;;;;6300325;28;20799;-65
2022/05/31 05:18:35;;;;;;;3.93;2.63;;;14.50;99.90;;;;;;6300261;28;20472;-65
2022/05/31 05:21:38;;;;;;;2.77;2.53;;;14.70;99.90;;;;;;6299953;28;20570;-64
2022/05/31 05:24:41;;;;;;;2.63;2.43;;;14.70;99.90;;;;;;6300126;28;20491;-65
2022/05/31 05:27:46;;;;;;;3.30;2.90;;;14.90;99.90;;;;;;6300273;28;20979;-65
2022/05/31 05:30:48;;;;;;;7.13;4.00;;;15.00;99.90;;;;;;6300137;28;20473;-65
2022/05/31 05:33:51;;;;;;;3.73;3.13;;;15.10;99.90;;;;;;6300348;28;20623;-65
2022/05/31 05:36:55;;;;;;;4.40;2.80;;;15.20;99.90;;;;;;6300482;28;20461;-65
2022/05/31 05:39:58;;;;;;;2.70;2.50;;;15.30;99.70;;;;;;6300297;28;20461;-65
2022/05/31 05:43:02;;;;;;;3.10;2.80;;;15.50;99.50;;;;;;6299679;28;20465;-65
2022/05/31 05:46:12;;;;;;;3.13;2.27;;;15.80;99.40;;;;;;6299643;28;20489;-65
2022/05/31 05:49:15;;;;;;;3.90;2.90;;;15.80;98.80;;;;;;6299857;28;20520;-65
2022/05/31 05:52:19;;;;;;;3.37;3.07;;;15.80;98.20;;;;;;6299760;28;20562;-66
2022/05/31 05:55:22;;;;;;;3.40;3.10;;;15.80;98.00;;;;;;6299717;28;20462;-65
2022/05/31 05:58:26;;;;;;;3.33;2.70;;;16.00;97.80;;;;;;6299439;28;20472;-65
2022/05/31 06:01:35;;;;;;;3.13;2.93;;;16.20;97.70;;;;;;6300396;28;20544;-64
2022/05/31 06:05:07;;;;;;;2.60;2.30;;;16.60;97.30;;;;;;6304857;28;20484;-65
2022/05/31 06:08:14;;;;;;;3.17;2.87;;;17.10;96.90;;;;;;6304627;28;20474;-65
2022/05/31 06:11:20;;;;;;;3.07;2.80;;;17.60;95.90;;;;;;6304214;28;20552;-64
2022/05/31 06:14:28;;;;;;;2.00;1.80;;;18.50;94.80;;;;;;6304409;28;20473;-65
2022/05/31 06:17:37;;;;;;;4.03;2.63;;;18.90;93.90;;;;;;6304116;28;20469;-66
2022/05/31 06:20:41;;;;;;;3.43;2.23;;;19.40;93.10;;;;;;6304082;28;20473;-65
2022/05/31 06:23:44;;;;;;;2.40;2.20;;;20.20;91.40;;;;;;6303856;28;20231;-66
2022/05/31 06:26:47;;;;;;;2.10;2.00;;;20.80;88.60;;;;;;6303924;28;20258;-65
2022/05/31 06:29:52;;;;;;;2.50;2.20;;;21.20;86.50;;;;;;6304286;28;20227;-66
2022/05/31 06:32:55;;;;;;;2.73;2.40;;;21.60;83.80;;;;;;6304421;28;20688;-66
2022/05/31 06:36:01;;;;;;;6.53;2.30;;;22.10;81.90;;;;;;6303964;28;20711;-66
2022/05/31 06:39:04;;;;;;;2.83;2.43;;;22.50;80.40;;;;;;6303703;28;20225;-66
2022/05/31 06:42:09;;;;;;;4.73;2.57;;;23.20;77.10;;;;;;6304255;28;20232;-66
2022/05/31 06:45:13;;;;;;;3.07;2.10;;;23.90;73.30;;;;;;6303438;28;20250;-66
2022/05/31 06:48:17;;;;;;;4.37;2.03;;;24.40;69.90;;;;;;6303980;28;20231;-66
2022/05/31 06:57:58;;;;;;;1.50;1.40;;;25.60;61.30;;;;;;6304203;28;20256;-66
2022/05/31 07:01:05;;;;;;;4.70;1.90;;;26.00;59.40;;;;;;6303442;28;20219;-66
2022/05/31 07:04:08;;;;;;;3.97;2.27;;;26.40;56.90;;;;;;6298984;28;20234;-66
2022/05/31 07:07:11;;;;;;;2.53;1.27;;;27.30;55.20;;;;;;6303652;28;20280;-66
2022/05/31 07:10:16;;;;;;;1.67;1.30;;;28.00;51.50;;;;;;6303232;28;20214;-66
2022/05/31 07:13:20;;;;;;;1.60;1.50;;;28.40;50.40;;;;;;6303147;28;20237;-66
2022/05/31 07:16:25;;;;;;;0.93;0.70;;;28.80;48.70;;;;;;6304431;28;20222;-66
2022/05/31 07:19:28;;;;;;;1.43;1.30;;;28.70;45.50;;;;;;6303111;28;20250;-66
2022/05/31 07:22:52;;;;;;;1.30;0.90;;;29.60;43.70;;;;;;6302604;28;20515;-66
2022/05/31 07:25:57;;;;;;;1.80;1.10;;;30.30;43.20;;;;;;6303144;28;20226;-66
2022/05/31 07:29:21;;;;;;;1.67;0.90;;;30.70;41.50;;;;;;6303226;28;20226;-66
2022/05/31 07:32:25;;;;;;;2.20;0.90;;;31.20;40.70;;;;;;6302621;28;20230;-65
2022/05/31 07:35:49;;;;;;;3.47;0.87;;;31.40;39.60;;;;;;6302936;28;20703;-66
2022/05/31 07:38:52;;;;;;;1.50;0.80;;;31.80;38.70;;;;;;6303293;28;20218;-66
2022/05/31 07:41:56;;;;;;;2.08;1.42;;;31.80;37.20;;;;;;6303535;28;20862;-65
2022/05/31 07:45:00;;;;;;;1.42;0.80;;;31.60;37.20;;;;;;6298818;28;20240;-66
2022/05/31 07:48:05;;;;;;;1.58;0.70;;;31.50;38.40;;;;;;6300581;28;20566;-66
2022/05/31 07:51:09;;;;;;;1.52;0.95;;;32.10;37.60;;;;;;6300357;28;20214;-66
2022/05/31 07:54:12;;;;;;;2.45;1.00;;;32.30;37.60;;;;;;6300135;28;20226;-65
2022/05/31 08:00:32;;;;;;;1.10;1.00;;;30.40;38.80;;;;;;6299793;28;20226;-66
2022/05/31 08:03:37;;;;;;;2.90;1.23;;;30.00;39.60;;;;;;6299888;28;20240;-66
2022/05/31 08:06:41;;;;;;;1.93;1.47;;;29.10;40.40;;;;;;6297805;28;20242;-66
2022/05/31 08:09:44;;;;;;;1.30;1.20;;;28.50;41.40;;;;;;6295660;28;20222;-65
2022/05/31 08:12:47;;;;;;;1.63;1.20;;;27.60;41.60;;;;;;6300186;28;20230;-64
2022/05/31 08:15:51;;;;;;;1.13;0.90;;;26.70;43.30;;;;;;6300098;28;20664;-64
2022/05/31 08:18:57;;;;;;;2.40;1.20;;;25.90;45.40;;;;;;6300159;28;20621;-69
2022/05/31 08:22:01;;;;;;;1.43;1.33;;;25.40;46.70;;;;;;6298810;28;20667;-67
2022/05/31 08:25:04;;;;;;;1.30;1.20;;;25.10;46.80;;;;;;6301483;28;20211;-66
2022/05/31 08:28:08;;;;;;;2.27;1.67;;;24.80;47.80;;;;;;6300106;28;20234;-66
2022/05/31 08:31:13;;;;;;;2.77;1.73;;;24.40;48.60;;;;;;6301271;28;20209;-67
2022/05/31 08:34:19;;;;;;;4.23;1.80;;;24.20;49.90;;;;;;6298854;28;20202;-66
2022/05/31 08:37:23;;;;;;;1.53;1.43;;;23.90;50.80;;;;;;6299761;28;20215;-67
2022/05/31 08:40:26;;;;;;;1.73;1.47;;;23.80;52.20;;;;;;6303209;28;20676;-65
2022/05/31 08:43:51;;;;;;;2.50;2.03;;;23.80;52.60;;;;;;6301396;28;20309;-66
2022/05/31 08:47:00;;;;;;;2.80;1.90;;;23.60;53.90;;;;;;6302621;28;20235;-68
2022/05/31 08:53:41;;;;;;;2.20;1.43;;;23.20;54.30;;;;;;6300482;28;20239;-66
2022/05/31 08:56:59;;;;;;;2.10;1.37;;;23.20;54.00;;;;;;6304882;28;20234;-66
2022/05/31 09:00:05;;;;;;;1.53;1.40;;;23.10;52.40;;;;;;6302155;28;20242;-67
2022/05/31 09:03:15;;;;;;;2.10;1.67;;;23.30;52.80;;;;;;6300141;28;20306;-63
2022/05/31 09:06:26;;;;;;;1.70;1.47;;;23.40;54.00;;;;;;6293432;28;20241;-63
2022/05/31 09:09:35;;;;;;;1.30;1.20;;;23.50;53.40;;;;;;6297869;28;20281;-63
2022/05/31 09:12:45;;;;;;;1.40;1.30;;;23.40;52.90;;;;;;6274848;28;20235;-63
2022/05/31 09:15:53;;;;;;;2.20;1.07;;;23.40;53.20;;;;;;6291004;28;20223;-67
2022/05/31 09:19:00;;;;;;;1.37;1.27;;;23.30;52.80;;;;;;6300350;28;20219;-67
2022/05/31 09:22:07;;;;;;;3.20;1.47;;;23.40;53.90;;;;;;6305152;28;20219;-67
2022/05/31 09:25:10;;;;;;;2.03;1.73;;;23.40;53.50;;;;;;6300510;28;20274;-67
2022/05/31 09:28:26;;;;;;;1.50;1.40;;;23.60;53.60;;;;;;6299558;28;20223;-67
2022/05/31 09:31:46;;;;;;;1.60;1.50;;;23.30;52.90;;;;;;6299846;28;20227;-68
2022/05/31 09:35:07;;;;;;;5.10;1.50;;;23.40;53.70;;;;;;6300180;28;20246;-66
2022/05/31 09:38:33;;;;;;;1.47;1.37;;;23.40;53.20;;;;;;6305021;28;20238;-68
2022/05/31 09:41:44;;;;;;;1.47;1.13;;;23.50;53.40;;;;;;6304509;28;20242;-65
2022/05/31 09:44:57;;;;;;;1.87;1.67;;;23.90;53.10;;;;;;6302828;28;20231;-67
2022/05/31 09:48:04;;;;;;;1.50;1.30;;;23.70;52.10;;;;;;6313702;28;20214;-67
2022/05/31 09:51:18;;;;;;;2.30;1.63;;;23.80;52.60;;;;;;6332066;28;20234;-68
2022/05/31 09:57:44;;;;;;;1.47;1.37;;;23.60;54.30;;;;;;6329602;28;20222;-65
2022/05/31 10:01:01;;;;;;;5.33;1.70;;;23.60;54.30;;;;;;6329794;28;20576;-69
2022/05/31 10:04:09;;;;;;;6.30;1.70;;;23.40;53.70;;;;;;6329263;28;20218;-68
2022/05/31 10:07:13;;;;;;;1.70;1.60;;;23.30;54.10;;;;;;6329049;28;20511;-68
2022/05/31 10:10:24;;;;;;;5.00;1.63;;;23.40;54.30;;;;;;6319797;28;20207;-65
2022/05/31 10:13:37;;;;;;;2.80;1.80;;;23.40;53.80;;;;;;6295077;28;20234;-65
2022/05/31 10:16:40;;;;;;;2.70;2.33;;;23.60;55.20;;;;;;6270159;28;20665;-64
2022/05/31 10:19:43;;;;;;;2.43;1.43;;;23.30;54.60;;;;;;6293674;28;20231;-64
2022/05/31 10:22:58;;;;;;;2.27;2.07;;;23.20;54.90;;;;;;6303261;28;20227;-65
2022/05/31 10:26:04;;;;;;;2.53;2.33;;;23.30;55.60;;;;;;6303500;28;20223;-65
2022/05/31 10:29:14;;;;;;;3.27;2.50;;;23.30;56.60;;;;;;6303223;28;20231;-65
2022/05/31 10:32:26;;;;;;;3.27;2.40;;;23.20;58.20;;;;;;6302982;28;20583;-65
2022/05/31 10:35:32;;;;;;;3.40;3.10;;;23.40;58.20;;;;;;6302964;28;20324;-65
2022/05/31 10:38:36;;;;;;;2.43;2.13;;;23.40;58.40;;;;;;6303208;28;20317;-65
2022/05/31 10:41:41;;;;;;;2.30;1.80;;;23.10;59.40;;;;;;6302534;28;20238;-65
2022/05/31 10:45:02;;;;;;;2.20;2.00;;;23.30;59.00;;;;;;6302688;28;20558;-65
2022/05/31 10:48:06;;;;;;;3.90;2.40;;;23.30;60.40;;;;;;6301635;28;20245;-64
2022/05/31 10:51:16;;;;;;;2.13;2.03;;;23.60;60.50;;;;;;6302466;28;20239;-64
2022/05/31 10:54:35;;;;;;;5.50;2.53;;;23.90;59.20;;;;;;6302580;28;20285;-65
2022/05/31 10:57:55;;;;;;;2.90;2.60;;;24.00;59.20;;;;;;6302068;28;20247;-65
2022/05/31 11:01:05;;;;;;;2.17;1.97;;;24.10;59.20;;;;;;6302405;28;20231;-64
2022/05/31 11:04:25;;;;;;;2.30;2.10;;;23.70;59.50;;;;;;6302228;28;20623;-65
2022/05/31 11:11:28;;;;;;;3.00;2.60;;;23.90;59.50;;;;;;6302601;28;20238;-65
2022/05/31 11:11:29;;;;;;;2.20;2.00;;;24.00;59.70;;;;;;6302317;28;20766;-65
2022/05/31 11:14:53;;;;;;;2.77;2.57;;;24.10;59.90;;;;;;6302600;28;20223;-64
2022/05/31 11:18:33;;;;;;;3.53;3.13;;;24.10;59.50;;;;;;6302286;28;20238;-64
2022/05/31 11:21:49;;;;;;;2.37;2.17;;;23.50;60.10;;;;;;6297722;28;20231;-64
2022/05/31 11:25:19;;;;;;;3.77;2.97;;;23.20;62.30;;;;;;6302244;28;20242;-64
2022/05/31 11:28:37;;;;;;;4.70;2.47;;;23.50;62.80;;;;;;6302074;28;20241;-65
2022/05/31 11:31:53;;;;;;;2.90;2.43;;;23.50;64.00;;;;;;6300159;28;20324;-65
2022/05/31 11:35:10;;;;;;;3.27;2.90;;;23.60;64.40;;;;;;6300488;28;20227;-65
2022/05/31 11:38:18;;;;;;;2.87;2.57;;;23.60;64.40;;;;;;6302022;28;20223;-69
2022/05/31 11:41:33;;;;;;;3.33;2.50;;;23.60;64.10;;;;;;6303518;28;20265;-64
2022/05/31 11:45:03;;;;;;;2.90;2.60;;;23.50;64.20;;;;;;6300473;28;20239;-65
2022/05/31 11:48:31;;;;;;;2.47;2.27;;;23.70;66.20;;;;;;6308883;28;20228;-67
2022/05/31 11:51:53;;;;;;;4.00;3.00;;;23.90;65.00;;;;;;6319083;28;20226;-63
2022/05/31 11:55:29;;;;;;;3.00;2.77;;;23.80;63.80;;;;;;6298463;28;20230;-63
2022/05/31 11:58:42;;;;;;;2.93;2.73;;;23.80;64.60;;;;;;6297369;28;20219;-64
2022/05/31 12:01:50;;;;;;;2.90;2.50;;;23.60;65.20;;;;;;6301139;28;20235;-65
2022/05/31 12:05:00;;;;;;;3.47;2.63;;;23.60;66.70;;;;;;6301019;28;20306;-67
2022/05/31 12:08:11;;;;;;;3.03;2.77;;;23.50;66.60;;;;;;6301675;28;20231;-66
2022/05/31 12:11:21;;;;;;;2.43;2.23;;;23.60;66.50;;;;;;6300663;28;20310;-67
2022/05/31 12:14:27;;;;;;;2.30;2.10;;;23.70;64.90;;;;;;6300834;28;20575;-68
2022/05/31 12:17:41;;;;;;;2.60;2.33;;;23.60;64.40;;;;;;6301158;28;20238;-66
2022/05/31 12:20:52;;;;;;;2.20;2.10;;;23.30;65.40;;;;;;6299598;28;20223;-68
2022/05/31 12:24:09;;;;;;;2.30;2.10;;;23.40;66.50;;;;;;6291513;28;20409;-64
2022/05/31 12:27:16;;;;;;;3.20;2.23;;;23.50;66.20;;;;;;6290349;28;20255;-67
2022/05/31 12:30:22;;;;;;;3.20;2.17;;;23.40;65.00;;;;;;6292211;28;20242;-66
2022/05/31 12:33:43;;;;;;;2.70;2.50;;;23.40;65.60;;;;;;6300389;28;20246;-67
2022/05/31 12:37:01;;;;;;;2.20;2.10;;;23.40;66.60;;;;;;6300565;28;20330;-64
2022/05/31 12:40:38;;;;;;;2.40;2.20;;;23.60;66.70;;;;;;6300051;28;20229;-66
2022/05/31 12:43:56;;;;;;;3.77;2.30;;;23.60;65.50;;;;;;6299577;28;20235;-63
2022/05/31 12:47:14;;;;;;;2.60;2.40;;;23.70;65.50;;;;;;6300261;28;20306;-64
2022/05/31 12:50:52;;;;;;;3.03;2.73;;;23.90;65.60;;;;;;6275239;28;20269;-63
2022/05/31 12:54:10;;;;;;;2.60;2.40;;;24.00;66.60;;;;;;6275007;28;20255;-66
2022/05/31 12:57:26;;;;;;;2.43;2.23;;;24.00;66.00;;;;;;6274443;28;20227;-65
2022/05/31 13:00:43;;;;;;;2.60;2.40;;;24.00;67.70;;;;;;6274687;28;20227;-65
2022/05/31 13:03:58;;;;;;;3.30;2.60;;;23.70;67.80;;;;;;6274331;28;20231;-65
2022/05/31 13:07:13;;;;;;;2.80;2.57;;;23.70;69.60;;;;;;6274559;28;20716;-63
2022/05/31 13:10:33;;;;;;;2.73;2.53;;;23.70;69.20;;;;;;6278260;28;20534;-65
2022/05/31 13:20:33;;;;;;;2.80;2.60;;;23.70;68.80;;;;;;6299944;28;20227;-65
2022/05/31 13:23:41;;;;;;;3.23;2.70;;;23.90;67.10;;;;;;6299055;28;20782;-67
2022/05/31 13:26:47;;;;;;;4.73;2.63;;;23.90;67.30;;;;;;6294877;28;20640;-66
2022/05/31 13:30:02;;;;;;;3.53;2.70;;;24.00;70.10;;;;;;6299031;28;20246;-65
2022/05/31 13:33:14;;;;;;;3.27;2.60;;;23.90;71.30;;;;;;6292918;28;20231;-63
2022/05/31 13:36:22;;;;;;;3.00;2.67;;;23.70;71.10;;;;;;6281356;28;20227;-63
2022/05/31 13:39:27;;;;;;;3.97;3.10;;;23.60;72.30;;;;;;6299258;28;20223;-62
2022/05/31 13:42:37;;;;;;;6.53;3.40;;;23.70;71.60;;;;;;6279278;28;20228;-62
2022/05/31 13:45:42;;;;;;;3.20;2.70;;;23.80;69.40;;;;;;6273638;28;20240;-62
2022/05/31 13:48:50;;;;;;;4.50;2.70;;;23.80;70.70;;;;;;6286920;28;20243;-62
2022/05/31 13:51:55;;;;;;;3.07;2.53;;;23.70;67.20;;;;;;6273915;28;20246;-62
2022/05/31 13:55:11;;;;;;;3.43;3.03;;;23.70;68.10;;;;;;6273876;28;20234;-62
2022/05/31 13:58:16;;;;;;;3.23;2.50;;;23.80;68.50;;;;;;6273716;28;20534;-64
2022/05/31 14:01:32;;;;;;;3.13;2.83;;;23.90;68.60;;;;;;6274197;28;20258;-66
2022/05/31 14:04:38;;;;;;;5.20;3.50;;;24.10;68.60;;;;;;6273898;28;20223;-66
2022/05/31 14:07:41;;;;;;;3.93;3.20;;;24.10;69.20;;;;;;6289196;28;20246;-65
2022/05/31 14:10:50;;;;;;;3.27;2.97;;;24.10;70.80;;;;;;6298403;28;20231;-65
2022/05/31 14:13:57;;;;;;;3.73;2.90;;;24.20;68.50;;;;;;6298438;28;20231;-66
2022/05/31 14:17:02;;;;;;;4.70;3.20;;;24.10;68.40;;;;;;6298675;28;20227;-65
2022/05/31 14:20:17;;;;;;;2.83;2.50;;;23.90;69.40;;;;;;6298509;28;20223;-66
2022/05/31 14:23:23;;;;;;;2.93;2.73;;;24.00;68.80;;;;;;6300489;28;20563;-66
2022/05/31 14:26:26;;;;;;;3.30;2.93;;;24.10;70.40;;;;;;6302733;28;20238;-68
2022/05/31 14:29:33;;;;;;;3.73;3.07;;;24.20;70.70;;;;;;6302698;28;20253;-66
2022/05/31 14:32:43;;;;;;;3.30;3.00;;;24.30;70.60;;;;;;6298421;28;20231;-65
2022/05/31 14:35:50;;;;;;;3.27;3.07;;;24.30;70.30;;;;;;6303010;28;20227;-65
2022/05/31 14:38:53;;;;;;;3.57;2.90;;;24.40;68.90;;;;;;6303094;28;20226;-65
2022/05/31 14:41:57;;;;;;;3.13;2.57;;;24.40;69.20;;;;;;6285946;28;20242;-64
2022/05/31 14:45:12;;;;;;;3.67;3.20;;;24.50;67.90;;;;;;6277369;28;20580;-65
2022/05/31 14:48:45;;;;;;;3.27;2.97;;;24.60;67.40;;;;;;6286753;28;20226;-65
2022/05/31 14:51:49;;;;;;;2.73;2.53;;;24.80;68.60;;;;;;6302105;28;20954;-65
2022/05/31 14:54:56;;;;;;;3.17;2.77;;;24.50;69.40;;;;;;6302502;28;20238;-65
2022/05/31 15:01:30;;;;;;;3.83;3.40;;;24.60;70.60;;;;;;6327473;28;20234;-65
2022/05/31 15:04:45;;;;;;;3.77;3.47;;;24.50;70.90;;;;;;6327473;28;20241;-65
2022/05/31 15:07:53;;;;;;;7.40;3.80;;;24.50;71.10;;;;;;6327242;28;20310;-66
2022/05/31 15:18:56;;;;;;;4.57;3.37;;;24.60;72.10;;;;;;6327149;28;20222;-66
2022/05/31 15:21:05;;;;;;;6.20;3.50;;;24.80;72.50;;;;;;6326787;28;20292;-66
2022/05/31 15:24:20;;;;;;;3.90;3.60;;;24.80;72.20;;;;;;6326720;28;20234;-65
2022/05/31 15:27:26;;;;;;;4.77;3.73;;;24.80;72.90;;;;;;6326466;28;20241;-66
2022/05/31 15:30:29;;;;;;;3.87;3.47;;;24.90;73.10;;;;;;6326113;28;20524;-66
2022/05/31 15:33:53;;;;;;;4.60;4.20;;;25.00;72.90;;;;;;6325936;28;20249;-65
2022/05/31 15:36:57;;;;;;;4.80;4.40;;;25.00;72.60;;;;;;6317652;28;20230;-65
2022/05/31 15:40:03;;;;;;;3.83;3.53;;;24.80;72.70;;;;;;6325752;28;20237;-65
2022/05/31 15:43:07;;;;;;;3.33;3.13;;;24.60;75.10;;;;;;6301433;28;20528;-65
2022/05/31 15:46:10;;;;;;;4.50;4.10;;;24.70;75.50;;;;;;6300570;28;20235;-64
2022/05/31 15:49:15;;;;;;;3.60;3.27;;;24.70;75.30;;;;;;6318360;28;20222;-65
2022/05/31 15:52:30;;;;;;;3.40;3.10;;;24.40;75.60;;;;;;6325974;28;20222;-65
2022/05/31 15:55:33;;;;;;;4.50;4.07;;;24.40;76.80;;;;;;6325749;28;20675;-65
2022/05/31 15:58:36;;;;;;;3.97;3.60;;;24.50;76.90;;;;;;6325928;28;20234;-65
2022/05/31 16:01:39;;;;;;;5.70;3.90;;;24.60;76.60;;;;;;6325828;28;20553;-65
2022/05/31 16:04:44;;;;;;;4.07;3.77;;;24.60;76.70;;;;;;6324769;28;20691;-66
2022/05/31 16:07:50;;;;;;;4.17;3.87;;;24.30;78.00;;;;;;6324412;28;20249;-64
2022/05/31 16:10:54;;;;;;;4.60;3.47;;;24.20;78.20;;;;;;6323841;28;20552;-65
2022/05/31 16:13:57;;;;;;;4.33;3.93;;;24.30;78.30;;;;;;6324988;28;20226;-67
2022/05/31 16:17:01;;;;;;;7.03;4.07;;;24.40;78.10;;;;;;6324264;28;20223;-66
2022/05/31 16:20:08;;;;;;;4.10;3.57;;;24.50;77.20;;;;;;6324628;28;20253;-66
2022/05/31 16:23:12;;;;;;;4.10;3.70;;;24.70;76.70;;;;;;6323750;28;20230;-64
2022/05/31 16:26:15;;;;;;;5.00;4.20;;;24.80;76.60;;;;;;6323566;28;20228;-65
2022/05/31 16:29:19;;;;;;;5.07;4.07;;;24.80;76.80;;;;;;6323134;28;20234;-65
2022/05/31 16:32:23;;;;;;;4.47;4.07;;;24.70;77.30;;;;;;6322777;28;20234;-64
2022/05/31 16:35:27;;;;;;;4.70;4.30;;;24.60;78.00;;;;;;6323483;28;20245;-64
2022/05/31 16:41:51;;;;;;;4.70;3.90;;;24.40;79.20;;;;;;6324949;28;20578;-64
2022/05/31 16:44:54;;;;;;;4.47;4.07;;;24.40;79.20;;;;;;6324548;28;20249;-64
2022/05/31 16:47:58;;;;;;;4.07;3.80;;;24.50;80.00;;;;;;6324431;28;20810;-65
2022/05/31 16:51:05;;;;;;;4.80;4.27;;;24.30;80.80;;;;;;6324631;28;20730;-64
2022/05/31 16:54:12;;;;;;;4.40;4.10;;;24.00;82.00;;;;;;6324778;28;20230;-64
2022/05/31 16:57:17;;;;;;;3.93;3.60;;;24.00;83.00;;;;;;6324391;28;20225;-65
2022/05/31 17:00:20;;;;;;;5.20;4.80;;;23.90;83.50;;;;;;6324484;28;20241;-65